sensor_id;sensor_type;location;lat;lon;timestamp;P1;durP1;ratioP1;P2;durP2;ratioP2
3271;SDS011;1648;50.022;8.424;2023-06-22T00:06:27;10.80;;;7.30;;
3271;SDS011;1648;50.022;8.424;2023-06-22T00:21:30;9.80;;;7.00;;
3271;SDS011;1648;50.022;8.424;2023-06-22T00:36:33;11.67;;;7.90;;
3271;SDS011;1648;50.022;8.424;2023-06-22T00:51:38;12.40;;;7.50;;
3271;SDS011;1648;50.022;8.424;2023-06-22T01:06:51;13.50;;;9.93;;
3271;SDS011;1648;50.022;8.424;2023-06-22T01:21:58;12.23;;;9.20;;
3271;SDS011;1648;50.022;8.424;2023-06-22T01:37:04;12.20;;;10.23;;
3271;SDS011;1648;50.022;8.424;2023-06-22T01:52:08;12.03;;;10.00;;
3271;SDS011;1648;50.022;8.424;2023-06-22T02:07:12;14.60;;;9.87;;
3271;SDS011;1648;50.022;8.424;2023-06-22T02:22:16;11.53;;;9.77;;
3271;SDS011;1648;50.022;8.424;2023-06-22T02:37:19;13.53;;;10.20;;
3271;SDS011;1648;50.022;8.424;2023-06-22T02:52:22;12.50;;;10.17;;
3271;SDS011;1648;50.022;8.424;2023-06-22T03:07:25;14.30;;;11.37;;
3271;SDS011;1648;50.022;8.424;2023-06-22T03:22:32;12.73;;;10.77;;
3271;SDS011;1648;50.022;8.424;2023-06-22T03:37:35;12.10;;;9.53;;
3271;SDS011;1648;50.022;8.424;2023-06-22T03:52:40;13.63;;;11.60;;
3271;SDS011;1648;50.022;8.424;2023-06-22T04:07:43;15.97;;;11.57;;
3271;SDS011;1648;50.022;8.424;2023-06-22T04:22:46;18.33;;;10.83;;
3271;SDS011;1648;50.022;8.424;2023-06-22T04:37:49;13.47;;;10.37;;
3271;SDS011;1648;50.022;8.424;2023-06-22T04:52:52;14.30;;;11.60;;
3271;SDS011;1648;50.022;8.424;2023-06-22T05:07:56;14.13;;;9.93;;
3271;SDS011;1648;50.022;8.424;2023-06-22T05:22:59;18.20;;;11.63;;
3271;SDS011;1648;50.022;8.424;2023-06-22T05:38:02;10.73;;;9.40;;
3271;SDS011;1648;50.022;8.424;2023-06-22T05:53:05;17.07;;;11.03;;
3271;SDS011;1648;50.022;8.424;2023-06-22T06:08:08;15.53;;;10.67;;
3271;SDS011;1648;50.022;8.424;2023-06-22T06:23:12;13.13;;;9.43;;
3271;SDS011;1648;50.022;8.424;2023-06-22T06:38:15;12.60;;;10.87;;
3271;SDS011;1648;50.022;8.424;2023-06-22T06:53:18;15.63;;;11.60;;
3271;SDS011;1648;50.022;8.424;2023-06-22T07:08:22;14.60;;;11.30;;
3271;SDS011;1648;50.022;8.424;2023-06-22T07:23:25;14.90;;;10.30;;
3271;SDS011;1648;50.022;8.424;2023-06-22T07:38:28;14.13;;;10.20;;
3271;SDS011;1648;50.022;8.424;2023-06-22T07:53:35;11.00;;;9.70;;
3271;SDS011;1648;50.022;8.424;2023-06-22T08:08:39;12.97;;;11.10;;
3271;SDS011;1648;50.022;8.424;2023-06-22T08:23:42;16.57;;;12.10;;
3271;SDS011;1648;50.022;8.424;2023-06-22T08:38:45;15.30;;;11.73;;
3271;SDS011;1648;50.022;8.424;2023-06-22T08:53:48;12.60;;;11.30;;
3271;SDS011;1648;50.022;8.424;2023-06-22T09:08:51;14.00;;;11.83;;
3271;SDS011;1648;50.022;8.424;2023-06-22T09:23:54;15.30;;;11.40;;
3271;SDS011;1648;50.022;8.424;2023-06-22T09:38:57;12.63;;;11.33;;
3271;SDS011;1648;50.022;8.424;2023-06-22T09:54:00;14.20;;;10.43;;
3271;SDS011;1648;50.022;8.424;2023-06-22T10:09:03;16.43;;;11.80;;
3271;SDS011;1648;50.022;8.424;2023-06-22T10:24:07;12.17;;;10.87;;
3271;SDS011;1648;50.022;8.424;2023-06-22T10:39:10;12.07;;;10.87;;
3271;SDS011;1648;50.022;8.424;2023-06-22T10:54:13;16.10;;;10.43;;
3271;SDS011;1648;50.022;8.424;2023-06-22T11:09:16;11.60;;;8.63;;
3271;SDS011;1648;50.022;8.424;2023-06-22T11:24:25;9.43;;;8.33;;
3271;SDS011;1648;50.022;8.424;2023-06-22T11:39:28;12.47;;;9.87;;
3271;SDS011;1648;50.022;8.424;2023-06-22T11:54:43;10.40;;;8.70;;
3271;SDS011;1648;50.022;8.424;2023-06-22T12:09:46;14.97;;;9.57;;
3271;SDS011;1648;50.022;8.424;2023-06-22T12:24:49;14.97;;;9.70;;
3271;SDS011;1648;50.022;8.424;2023-06-22T12:39:52;12.70;;;9.97;;
3271;SDS011;1648;50.022;8.424;2023-06-22T12:54:56;13.33;;;10.30;;
3271;SDS011;1648;50.022;8.424;2023-06-22T13:09:59;14.47;;;10.50;;
3271;SDS011;1648;50.022;8.424;2023-06-22T13:25:02;12.43;;;10.03;;
3271;SDS011;1648;50.022;8.424;2023-06-22T13:40:06;12.20;;;9.90;;
3271;SDS011;1648;50.022;8.424;2023-06-22T13:55:10;15.60;;;9.53;;
3271;SDS011;1648;50.022;8.424;2023-06-22T14:10:13;22.13;;;8.27;;
3271;SDS011;1648;50.022;8.424;2023-06-22T14:25:17;15.27;;;6.83;;
3271;SDS011;1648;50.022;8.424;2023-06-22T14:40:20;14.17;;;6.17;;
3271;SDS011;1648;50.022;8.424;2023-06-22T14:55:25;11.33;;;7.03;;
3271;SDS011;1648;50.022;8.424;2023-06-22T15:10:28;15.67;;;9.47;;
3271;SDS011;1648;50.022;8.424;2023-06-22T15:25:32;14.83;;;6.67;;
3271;SDS011;1648;50.022;8.424;2023-06-22T15:40:40;29.70;;;16.23;;
3271;SDS011;1648;50.022;8.424;2023-06-22T15:55:45;17.33;;;7.67;;
3271;SDS011;1648;50.022;8.424;2023-06-22T16:10:49;31.23;;;10.17;;
3271;SDS011;1648;50.022;8.424;2023-06-22T16:25:52;17.20;;;4.50;;
3271;SDS011;1648;50.022;8.424;2023-06-22T16:40:55;4.17;;;3.30;;
3271;SDS011;1648;50.022;8.424;2023-06-22T16:55:58;8.97;;;3.67;;
3271;SDS011;1648;50.022;8.424;2023-06-22T17:11:01;5.70;;;2.90;;
3271;SDS011;1648;50.022;8.424;2023-06-22T17:26:04;10.80;;;5.10;;
3271;SDS011;1648;50.022;8.424;2023-06-22T17:41:08;5.53;;;4.30;;
3271;SDS011;1648;50.022;8.424;2023-06-22T17:56:14;3.53;;;2.87;;
3271;SDS011;1648;50.022;8.424;2023-06-22T18:11:17;6.03;;;3.80;;
3271;SDS011;1648;50.022;8.424;2023-06-22T18:26:24;5.60;;;3.37;;
3271;SDS011;1648;50.022;8.424;2023-06-22T18:41:33;7.70;;;4.80;;
3271;SDS011;1648;50.022;8.424;2023-06-22T18:56:52;7.27;;;4.20;;
3271;SDS011;1648;50.022;8.424;2023-06-22T19:27:22;7.20;;;5.70;;
3271;SDS011;1648;50.022;8.424;2023-06-22T19:42:32;14.40;;;10.83;;
3271;SDS011;1648;50.022;8.424;2023-06-22T19:57:38;2.10;;;2.00;;
3271;SDS011;1648;50.022;8.424;2023-06-22T20:12:41;2.20;;;0.80;;
3271;SDS011;1648;50.022;8.424;2023-06-22T20:27:50;0.70;;;0.70;;
3271;SDS011;1648;50.022;8.424;2023-06-22T20:43:01;0.90;;;0.90;;
3271;SDS011;1648;50.022;8.424;2023-06-22T20:58:05;0.70;;;0.70;;
3271;SDS011;1648;50.022;8.424;2023-06-22T21:13:08;2.50;;;0.60;;
3271;SDS011;1648;50.022;8.424;2023-06-22T21:28:11;0.47;;;0.47;;
3271;SDS011;1648;50.022;8.424;2023-06-22T21:43:14;0.40;;;0.40;;
3271;SDS011;1648;50.022;8.424;2023-06-22T21:58:18;0.40;;;0.40;;
